< Cyclone 196407 1964 Season Cyclone 196409 >
Cyclone 196408 (HAZEL)
General InformationTrack Information on Google Maps || ResourceGoogle EarthGE AnimationAtom FeedGeoJSON
Detalied Best Track (Time Zone = UTC)
Year Month Day Hour Lat. Long. Pressure (hPa) Wind (kt) Class Image Chart
1964 3 7 01 -13.9 106.0 1001 0 0 -- --
1964 3 7 04 -13.8 105.6 1001 0 0 -- --
1964 3 7 07 -13.7 105.2 1001 0 0 -- --
1964 3 7 10 -13.6 104.8 1001 0 0 -- --
1964 3 7 16 -13.3 104.0 1001 0 0 -- --
1964 3 7 19 -13.2 103.6 1001 0 0 -- --
1964 3 7 22 -13.0 103.3 1001 0 0 -- --
1964 3 8 01 -12.9 103.0 1001 0 0 -- --
1964 3 8 04 -12.9 102.5 1000 0 0 -- --
1964 3 8 10 -12.9 100.7 998 0 0 -- --
1964 3 8 16 -12.9 100.1 996 0 0 -- --
1964 3 8 19 -12.9 99.5 994 0 0 -- --
1964 3 8 22 -12.9 98.7 993 0 0 -- --
1964 3 9 01 -12.9 98.0 991 0 0 -- --
1964 3 9 04 -12.9 97.6 990 0 0 -- --
1964 3 9 07 -12.9 97.2 989 0 0 -- --
1964 3 9 10 -12.9 96.8 988 0 0 -- --
1964 3 9 16 -12.9 96.0 986 0 0 -- --
1964 3 9 19 -12.9 95.6 985 0 0 -- --
1964 3 9 22 -12.9 95.3 984 0 0 -- --
1964 3 10 01 -12.9 95.0 983 0 0 -- --
1964 3 10 04 -13.1 94.8 983 0 0 -- --
1964 3 10 07 -13.4 94.7 982 0 0 -- --
1964 3 10 10 -13.6 94.6 982 0 0 -- --
1964 3 10 16 -14.1 94.4 981 0 0 -- --
1964 3 10 22 -14.7 94.1 980 0 0 -- --
1964 3 11 01 -14.9 94.0 980 0 0 -- --
1964 3 11 04 -15.2 93.9 981 0 0 -- --
1964 3 11 07 -15.5 93.8 982 0 0 -- --
1964 3 11 10 -15.9 93.7 983 0 0 -- --
1964 3 11 16 -16.7 93.4 985 0 0 -- --
1964 3 11 19 -17.1 93.3 986 0 0 -- --
1964 3 11 22 -17.5 93.1 988 0 0 -- --
1964 3 12 01 -17.9 93.0 990 0 0 -- --
1964 3 12 04 -18.0 93.0 990 0 0 -- --
1964 3 12 07 -18.2 93.0 991 0 0 -- --
1964 3 12 10 -18.3 93.0 991 0 0 -- --
1964 3 12 16 -18.6 93.0 992 0 0 -- --
1964 3 12 19 -18.7 93.0 993 0 0 -- --
1964 3 12 22 -18.8 93.0 994 0 0 -- --
1964 3 13 04 -19.0 92.9 995 0 0 -- --
1964 3 13 07 -19.2 92.8 995 0 0 -- --
1964 3 13 16 -19.6 92.4 995 0 0 -- --
1964 3 14 01 -19.9 92.0 995 0 0 -- --
1964 3 14 04 -20.1 91.9 995 0 0 -- --
1964 3 14 07 -20.4 91.8 995 0 0 -- --
1964 3 14 10 -20.7 91.7 995 0 0 -- --
1964 3 14 16 -21.2 91.4 995 0 0 -- --
1964 3 14 19 -21.4 91.3 995 0 0 -- --
1964 3 14 22 -21.7 91.1 995 0 0 -- --
1964 3 15 01 -21.9 91.0 995 0 0 -- --
1964 3 15 07 -22.9 91.0 997 0 0 -- --
1964 3 15 16 -24.4 91.0 1001 0 0 -- --
1964 3 15 22 -25.4 91.0 1003 0 0 -- --
1964 3 16 04 -26.4 91.5 1005 0 0 -- --
1964 3 16 07 -26.9 92.0 1006 0 0 -- --
1964 3 16 10 -27.4 92.5 1007 0 0 -- --
1964 3 16 16 -28.4 93.5 1007 0 0 -- --
1964 3 16 19 -28.9 94.0 1008 0 0 -- --
1964 3 16 22 -29.4 94.5 1008 0 0 -- --
1964 3 17 01 -29.9 95.0 1009 0 0 -- --
< Cyclone 196407 1964 Season Cyclone 196409 >

Help